createdAt,value
2023-02-16T00:00:56.083Z,27.10
2023-02-16T00:03:27.259Z,22.02
2023-02-16T00:06:16.931Z,41.90
2023-02-16T00:08:48.653Z,32.90
2023-02-16T00:11:43.719Z,28.73
2023-02-16T00:14:13.641Z,20.38
2023-02-16T00:16:42.448Z,19.92
2023-02-16T00:19:22.458Z,17.30
2023-02-16T00:21:52.890Z,19.58
2023-02-16T00:24:21.734Z,18.10
2023-02-16T00:26:50.943Z,18.23
2023-02-16T00:29:25.591Z,18.50
2023-02-16T00:31:55.491Z,25.05
2023-02-16T00:34:29.247Z,30.95
2023-02-16T00:39:27.432Z,22.48
2023-02-16T00:41:59.711Z,20.88
2023-02-16T00:44:38.369Z,29.98
2023-02-16T00:47:30.478Z,23.27
2023-02-16T00:50:01.971Z,32.35
2023-02-16T00:52:31.292Z,29.80
2023-02-16T00:55:01.306Z,39.72
2023-02-16T00:57:35.197Z,31.38
2023-02-16T01:00:09.784Z,29.65
2023-02-16T01:02:40.593Z,28.58
2023-02-16T01:05:09.419Z,21.95
2023-02-16T01:07:56.635Z,21.35
2023-02-16T01:10:44.758Z,21.75
2023-02-16T01:13:14.912Z,20.75
2023-02-16T01:15:44.337Z,21.27
2023-02-16T01:18:19.146Z,30.98
2023-02-16T01:20:48.390Z,26.58
2023-02-16T01:23:17.113Z,29.00
2023-02-16T01:25:45.735Z,33.55
2023-02-16T01:28:25.634Z,37.88
2023-02-16T01:30:54.938Z,33.92
2023-02-16T01:33:23.835Z,34.08
2023-02-16T01:35:54.484Z,32.92
2023-02-16T01:38:26.197Z,33.50
2023-02-16T01:41:00.402Z,35.50
2023-02-16T01:43:49.269Z,29.30
2023-02-16T01:46:50.188Z,30.65
2023-02-16T01:49:21.044Z,28.92
2023-02-16T01:51:59.143Z,30.95
2023-02-16T01:54:34.359Z,30.20
2023-02-16T01:57:27.999Z,29.83
2023-02-16T01:59:56.675Z,26.48
2023-02-16T02:02:34.630Z,29.50
2023-02-16T02:05:36.294Z,25.35
2023-02-16T02:08:30.827Z,28.33
2023-02-16T02:11:15.136Z,20.25
2023-02-16T02:14:00.156Z,24.10
2023-02-16T02:16:32.344Z,22.00
2023-02-16T02:19:01.927Z,19.35
2023-02-16T02:22:33.608Z,21.95
2023-02-16T02:25:41.806Z,19.15
2023-02-16T02:28:25.978Z,23.05
2023-02-16T02:30:59.074Z,23.38
2023-02-16T02:34:02.770Z,21.00
2023-02-16T02:36:31.378Z,23.50
2023-02-16T02:39:18.553Z,24.15
2023-02-16T02:42:05.647Z,26.80
2023-02-16T02:45:05.408Z,32.40
2023-02-16T02:47:44.918Z,27.02
2023-02-16T02:51:13.334Z,31.50
2023-02-16T02:53:49.862Z,21.80
2023-02-16T02:56:38.249Z,30.92
2023-02-16T02:59:29.088Z,43.88
2023-02-16T03:02:02.089Z,38.30
2023-02-16T03:04:32.222Z,28.77
2023-02-16T03:07:03.320Z,37.47
2023-02-16T03:09:32.113Z,26.60
2023-02-16T03:12:21.872Z,24.63
2023-02-16T03:14:59.764Z,35.47
2023-02-16T03:17:56.515Z,27.02
2023-02-16T03:20:43.761Z,20.77
2023-02-16T03:23:31.896Z,23.27
2023-02-16T03:26:18.716Z,20.65
2023-02-16T03:29:07.608Z,18.80
2023-02-16T03:31:41.512Z,20.05
2023-02-16T03:34:11.332Z,23.55
2023-02-16T03:36:44.249Z,30.52
2023-02-16T03:39:13.544Z,27.07
2023-02-16T03:41:49.884Z,29.67
2023-02-16T03:44:19.154Z,36.50
2023-02-16T03:46:50.344Z,45.75
2023-02-16T03:49:20.058Z,47.67
2023-02-16T03:51:51.490Z,39.58
2023-02-16T03:54:20.256Z,38.35
2023-02-16T03:56:48.693Z,43.17
2023-02-16T03:59:17.572Z,35.47
2023-02-16T04:01:46.462Z,37.72
2023-02-16T04:04:15.997Z,36.92
2023-02-16T04:06:44.571Z,37.60
2023-02-16T04:09:13.166Z,38.53
2023-02-16T04:12:00.126Z,43.08
2023-02-16T04:14:29.203Z,43.05
2023-02-16T04:17:00.244Z,42.72
2023-02-16T04:19:28.958Z,50.40
2023-02-16T04:21:57.499Z,46.85
2023-02-16T04:24:26.459Z,49.17
2023-02-16T04:26:55.134Z,51.92
2023-02-16T04:29:24.032Z,40.47
2023-02-16T04:31:52.726Z,43.65
2023-02-16T04:34:21.545Z,48.78
2023-02-16T04:36:50.305Z,31.25
2023-02-16T04:39:19.286Z,23.65
2023-02-16T04:41:48.143Z,32.88
2023-02-16T04:44:16.916Z,48.38
2023-02-16T04:46:45.934Z,46.63
2023-02-16T04:49:15.132Z,37.15
2023-02-16T04:51:44.029Z,38.47
2023-02-16T04:54:13.143Z,32.17
2023-02-16T04:56:45.807Z,30.73
2023-02-16T04:59:16.108Z,28.63
2023-02-16T05:01:46.857Z,23.70
2023-02-16T05:04:17.138Z,24.67
2023-02-16T05:06:46.589Z,28.65
2023-02-16T05:09:15.307Z,29.15
2023-02-16T05:12:02.800Z,20.35
2023-02-16T05:14:43.352Z,25.70
2023-02-16T05:17:19.591Z,25.13
2023-02-16T05:19:51.988Z,19.00
2023-02-16T05:22:21.543Z,18.95
2023-02-16T05:24:50.604Z,20.20
2023-02-16T05:27:24.909Z,20.98
2023-02-16T05:32:25.366Z,14.57
2023-02-16T05:34:57.235Z,13.93
2023-02-16T05:37:26.039Z,11.75
2023-02-16T05:39:54.743Z,13.45
2023-02-16T05:42:23.374Z,14.63
2023-02-16T05:44:52.034Z,15.15
2023-02-16T05:47:22.479Z,16.02
2023-02-16T05:49:51.572Z,17.02
2023-02-16T05:52:20.244Z,16.98
2023-02-16T05:54:48.689Z,16.80
2023-02-16T05:57:17.329Z,13.88
2023-02-16T05:59:46.287Z,16.15
2023-02-16T06:02:15.410Z,16.65
2023-02-16T06:04:44.110Z,15.48
2023-02-16T06:07:14.827Z,14.35
2023-02-16T06:09:44.286Z,14.43
2023-02-16T06:12:13.697Z,12.93
2023-02-16T06:14:42.339Z,14.52
2023-02-16T06:17:11.284Z,17.00
2023-02-16T06:19:40.130Z,16.48
2023-02-16T06:22:08.710Z,14.68
2023-02-16T06:24:39.948Z,13.30
2023-02-16T06:27:08.684Z,14.55
2023-02-16T06:29:37.319Z,12.30
2023-02-16T06:32:06.216Z,12.20
2023-02-16T06:34:34.943Z,13.70
2023-02-16T06:37:03.729Z,15.85
2023-02-16T06:39:32.225Z,14.13
2023-02-16T06:42:00.865Z,13.48
2023-02-16T06:44:29.606Z,12.02
2023-02-16T06:46:58.645Z,12.70
2023-02-16T06:49:28.026Z,13.38
2023-02-16T06:51:56.931Z,10.90
2023-02-16T06:54:25.688Z,11.40
2023-02-16T06:56:54.280Z,10.05
2023-02-16T06:59:23.018Z,9.30
2023-02-16T07:01:51.683Z,11.05
2023-02-16T07:04:23.323Z,12.15
2023-02-16T07:06:54.632Z,11.43
2023-02-16T07:09:23.757Z,12.80
2023-02-16T07:11:52.487Z,13.45
2023-02-16T07:14:21.517Z,12.60
2023-02-16T07:16:50.399Z,13.07
2023-02-16T07:19:19.096Z,12.35
2023-02-16T07:21:47.767Z,11.23
2023-02-16T07:24:16.332Z,10.23
2023-02-16T07:26:47.987Z,13.38
2023-02-16T07:29:16.812Z,13.65
2023-02-16T07:31:45.784Z,10.65
2023-02-16T07:34:14.432Z,11.30
2023-02-16T07:36:43.192Z,12.20
2023-02-16T07:39:12.616Z,12.05
2023-02-16T07:41:41.214Z,11.07
2023-02-16T07:44:10.262Z,12.45
2023-02-16T07:46:39.065Z,12.27
2023-02-16T07:49:07.899Z,10.07
2023-02-16T07:51:36.673Z,10.55
2023-02-16T07:54:05.453Z,10.88
2023-02-16T07:56:36.700Z,12.30
2023-02-16T07:59:05.467Z,10.68
2023-02-16T08:01:35.144Z,11.63
2023-02-16T08:04:03.721Z,10.45
2023-02-16T08:06:32.412Z,10.20
2023-02-16T08:09:01.078Z,9.85
2023-02-16T08:11:29.918Z,10.80
2023-02-16T08:14:01.056Z,11.50
2023-02-16T08:16:30.931Z,10.75
2023-02-16T08:19:01.200Z,10.15
2023-02-16T08:21:32.801Z,10.45
2023-02-16T08:24:04.201Z,8.48
2023-02-16T08:26:42.402Z,11.05
2023-02-16T08:29:13.236Z,11.15
2023-02-16T08:31:48.569Z,10.85
2023-02-16T08:34:19.515Z,9.82
2023-02-16T08:36:53.946Z,10.95
2023-02-16T08:39:33.681Z,7.55
2023-02-16T08:42:02.801Z,10.45
2023-02-16T08:44:34.235Z,10.80
2023-02-16T08:47:03.499Z,11.10
2023-02-16T08:49:35.012Z,12.05
2023-02-16T08:52:05.046Z,11.65
2023-02-16T08:54:34.025Z,11.73
2023-02-16T08:57:03.727Z,11.75
2023-02-16T08:59:33.828Z,11.32
2023-02-16T09:02:02.919Z,11.00
2023-02-16T09:04:31.785Z,11.20
2023-02-16T09:07:01.281Z,11.35
2023-02-16T09:09:33.104Z,10.48
2023-02-16T09:12:02.235Z,13.50
2023-02-16T09:14:30.946Z,13.20
2023-02-16T09:16:59.684Z,9.85
2023-02-16T09:19:28.991Z,9.38
2023-02-16T09:22:00.178Z,14.70
2023-02-16T09:24:29.068Z,12.27
2023-02-16T09:26:57.675Z,15.88
2023-02-16T09:29:26.483Z,11.52
2023-02-16T09:31:57.771Z,15.55
2023-02-16T09:34:28.343Z,12.00
2023-02-16T09:36:57.350Z,11.82
2023-02-16T09:39:26.058Z,13.13
2023-02-16T09:42:34.128Z,13.43
2023-02-16T09:45:18.909Z,12.65
2023-02-16T09:50:50.261Z,14.13
2023-02-16T09:53:23.435Z,14.55
2023-02-16T09:56:03.852Z,11.73
2023-02-16T09:58:54.998Z,11.98
2023-02-16T10:01:45.728Z,14.68
2023-02-16T10:04:36.256Z,15.45
2023-02-16T10:07:43.564Z,19.23
2023-02-16T10:10:17.315Z,13.85
2023-02-16T10:12:56.655Z,15.55
2023-02-16T10:15:31.363Z,16.50
2023-02-16T10:18:09.457Z,16.73
2023-02-16T10:20:45.047Z,23.23
2023-02-16T10:23:35.054Z,17.52
2023-02-16T10:26:14.916Z,22.27
2023-02-16T10:28:51.075Z,19.85
2023-02-16T10:31:25.742Z,41.78
2023-02-16T10:34:19.285Z,26.27
2023-02-16T10:37:32.661Z,21.52
2023-02-16T10:40:42.621Z,18.00
2023-02-16T10:43:22.226Z,16.50
2023-02-16T10:45:57.441Z,13.32
2023-02-16T10:48:27.101Z,20.92
2023-02-16T10:51:17.564Z,16.60
2023-02-16T10:54:12.806Z,17.52
2023-02-16T10:57:39.803Z,24.98
2023-02-16T11:00:14.103Z,15.75
2023-02-16T11:05:28.571Z,10.65
2023-02-16T11:08:02.136Z,13.52
2023-02-16T11:10:51.725Z,18.35
2023-02-16T11:13:38.770Z,13.95
2023-02-16T11:16:14.598Z,20.15
2023-02-16T11:18:47.527Z,19.13
2023-02-16T11:21:17.530Z,13.80
2023-02-16T11:24:02.848Z,14.13
2023-02-16T11:26:32.175Z,14.98
2023-02-16T11:29:19.958Z,16.60
2023-02-16T11:31:49.005Z,16.25
2023-02-16T11:34:34.270Z,18.23
2023-02-16T11:37:07.875Z,22.50
2023-02-16T11:39:40.843Z,17.10
2023-02-16T11:42:28.270Z,19.27
2023-02-16T11:45:00.337Z,20.13
2023-02-16T11:47:35.518Z,15.27
2023-02-16T11:50:29.702Z,15.45
2023-02-16T11:53:24.245Z,13.85
2023-02-16T11:56:28.181Z,14.75
2023-02-16T11:59:09.184Z,15.20
2023-02-16T12:02:06.083Z,14.75
2023-02-16T12:04:34.760Z,18.33
2023-02-16T12:07:28.763Z,21.88
2023-02-16T12:10:11.227Z,23.35
2023-02-16T12:13:01.668Z,25.20
2023-02-16T12:15:50.725Z,19.83
2023-02-16T12:18:35.044Z,18.50
2023-02-16T12:21:19.244Z,23.08
2023-02-16T12:24:06.222Z,28.80
2023-02-16T12:26:43.797Z,23.83
2023-02-16T12:29:31.597Z,20.95
2023-02-16T12:32:16.864Z,20.23
2023-02-16T12:34:58.353Z,16.45
2023-02-16T12:37:40.640Z,17.90
2023-02-16T12:40:27.944Z,20.10
2023-02-16T12:43:04.818Z,22.13
2023-02-16T12:45:39.484Z,24.38
2023-02-16T12:48:30.143Z,27.17
2023-02-16T12:51:03.569Z,39.03
2023-02-16T12:53:42.642Z,42.60
2023-02-16T12:56:20.537Z,41.92
2023-02-16T12:58:57.058Z,46.30
2023-02-16T13:01:34.579Z,52.28
2023-02-16T13:04:15.524Z,51.70
2023-02-16T13:06:56.519Z,45.10
2023-02-16T13:09:38.764Z,43.10
2023-02-16T13:12:29.691Z,65.43
2023-02-16T13:15:28.746Z,101.88
2023-02-16T13:18:02.496Z,141.63
2023-02-16T13:20:32.580Z,102.72
2023-02-16T13:23:16.610Z,80.40
2023-02-16T13:26:05.407Z,77.25
2023-02-16T13:29:11.823Z,83.68
2023-02-16T13:31:50.129Z,64.47
2023-02-16T13:34:19.316Z,62.67
2023-02-16T13:37:19.052Z,63.38
2023-02-16T13:39:58.697Z,65.20
2023-02-16T13:42:41.611Z,55.10
2023-02-16T13:45:22.690Z,50.80
2023-02-16T13:47:54.517Z,47.67
2023-02-16T13:50:23.254Z,38.38
2023-02-16T13:52:54.294Z,39.47
2023-02-16T13:55:34.496Z,52.13
2023-02-16T13:58:25.988Z,37.55
2023-02-16T14:00:55.409Z,34.53
2023-02-16T14:03:24.474Z,35.72
2023-02-16T14:05:55.874Z,28.50
2023-02-16T14:08:28.947Z,35.28
2023-02-16T14:11:04.731Z,34.25
2023-02-16T14:13:47.636Z,36.17
2023-02-16T14:16:23.262Z,34.45
2023-02-16T14:19:25.949Z,31.95
2023-02-16T14:21:54.948Z,41.53
2023-02-16T14:24:26.750Z,49.38
2023-02-16T14:26:55.790Z,82.82
2023-02-16T14:29:33.702Z,73.32
2023-02-16T14:32:18.251Z,69.50
2023-02-16T14:34:57.029Z,73.40
2023-02-16T14:37:31.991Z,75.28
2023-02-16T14:40:36.281Z,90.97
2023-02-16T14:43:19.703Z,124.57
2023-02-16T14:45:52.374Z,82.25
2023-02-16T14:48:42.560Z,71.15
2023-02-16T14:51:39.790Z,64.53
2023-02-16T14:54:41.094Z,46.50
2023-02-16T14:57:25.054Z,43.15
2023-02-16T15:00:15.898Z,44.42
2023-02-16T15:03:08.129Z,49.45
2023-02-16T15:05:38.684Z,44.17
2023-02-16T15:08:25.062Z,58.78
2023-02-16T15:10:54.834Z,64.53
2023-02-16T15:13:32.745Z,51.45
2023-02-16T15:16:04.559Z,38.45
2023-02-16T15:18:48.579Z,35.42
2023-02-16T15:21:24.838Z,36.88
2023-02-16T15:23:58.915Z,31.40
2023-02-16T15:26:33.899Z,26.45
2023-02-16T15:29:25.584Z,28.73
2023-02-16T15:31:58.897Z,29.02
2023-02-16T15:34:37.149Z,28.92
2023-02-16T15:37:34.568Z,27.65
2023-02-16T15:40:26.358Z,31.98
2023-02-16T15:42:56.694Z,33.33
2023-02-16T15:45:30.206Z,33.03
2023-02-16T15:48:16.883Z,30.98
2023-02-16T15:50:47.920Z,35.85
2023-02-16T15:53:43.645Z,42.28
2023-02-16T15:56:18.453Z,48.90
2023-02-16T15:58:48.630Z,49.88
2023-02-16T16:01:31.570Z,46.95
2023-02-16T16:04:03.401Z,37.83
2023-02-16T16:06:38.211Z,34.75
2023-02-16T16:09:09.096Z,39.47
2023-02-16T16:11:38.749Z,56.72
2023-02-16T16:14:08.128Z,64.38
2023-02-16T16:16:37.687Z,51.67
2023-02-16T16:19:20.328Z,61.97
2023-02-16T16:21:57.548Z,108.88
2023-02-16T16:24:39.871Z,129.05
2023-02-16T16:27:12.554Z,67.32
2023-02-16T16:29:45.462Z,44.42
2023-02-16T16:32:23.703Z,43.63
2023-02-16T16:34:53.025Z,43.20
2023-02-16T16:37:32.210Z,34.75
2023-02-16T16:40:21.418Z,36.17
2023-02-16T16:43:16.741Z,35.83
2023-02-16T16:45:46.937Z,32.42
2023-02-16T16:48:15.394Z,38.10
2023-02-16T16:50:44.176Z,48.47
2023-02-16T16:53:33.710Z,44.17
2023-02-16T16:56:02.855Z,31.05
2023-02-16T16:58:31.534Z,36.63
2023-02-16T17:01:02.217Z,30.00
2023-02-16T17:03:31.443Z,29.42
2023-02-16T17:06:00.210Z,24.48
2023-02-16T17:08:28.971Z,23.92
2023-02-16T17:10:57.780Z,24.35
2023-02-16T17:13:28.283Z,31.63
2023-02-16T17:15:58.847Z,30.35
2023-02-16T17:18:28.052Z,26.85
2023-02-16T17:20:58.593Z,30.13
2023-02-16T17:23:29.457Z,33.83
2023-02-16T17:25:58.658Z,32.42
2023-02-16T17:28:29.989Z,33.97
2023-02-16T17:31:01.818Z,39.33
2023-02-16T17:33:30.706Z,36.88
2023-02-16T17:35:59.778Z,36.95
2023-02-16T17:38:28.680Z,37.90
2023-02-16T17:40:58.702Z,36.88
2023-02-16T17:43:28.242Z,41.30
2023-02-16T17:46:00.324Z,43.90
2023-02-16T17:48:31.314Z,42.00
2023-02-16T17:50:59.982Z,41.08
2023-02-16T17:53:29.537Z,48.08
2023-02-16T17:55:59.028Z,41.63
2023-02-16T17:58:27.847Z,42.95
2023-02-16T18:00:56.602Z,37.58
2023-02-16T18:03:27.582Z,37.40
2023-02-16T18:05:56.894Z,35.55
2023-02-16T18:08:26.234Z,27.30
2023-02-16T18:11:04.050Z,25.40
2023-02-16T18:13:34.811Z,25.63
2023-02-16T18:16:07.840Z,23.50
2023-02-16T18:18:42.752Z,26.63
2023-02-16T18:21:14.017Z,28.05
2023-02-16T18:23:42.843Z,64.40
2023-02-16T18:26:15.726Z,41.35
2023-02-16T18:28:46.731Z,29.13
2023-02-16T18:31:15.738Z,22.73
2023-02-16T18:33:44.717Z,22.10
2023-02-16T18:36:14.329Z,28.77
2023-02-16T18:38:44.362Z,21.25
2023-02-16T18:41:14.401Z,31.02
2023-02-16T18:43:43.375Z,20.38
2023-02-16T18:46:12.755Z,18.95
2023-02-16T18:48:42.351Z,22.35
2023-02-16T18:51:12.761Z,25.48
2023-02-16T18:53:41.784Z,25.83
2023-02-16T18:56:12.751Z,37.72
2023-02-16T18:58:41.623Z,39.28
2023-02-16T19:01:28.978Z,39.00
2023-02-16T19:03:59.048Z,37.72
2023-02-16T19:06:27.899Z,41.63
2023-02-16T19:08:59.151Z,40.38
2023-02-16T19:11:32.113Z,39.08
2023-02-16T19:14:01.033Z,34.93
2023-02-16T19:16:29.752Z,37.80
2023-02-16T19:19:01.411Z,35.38
2023-02-16T19:21:30.148Z,40.65
2023-02-16T19:23:59.028Z,38.78
2023-02-16T19:26:27.895Z,43.38
2023-02-16T19:28:56.629Z,37.47
2023-02-16T19:31:29.173Z,38.80
2023-02-16T19:33:59.849Z,35.92
2023-02-16T19:36:32.291Z,35.75
2023-02-16T19:39:02.415Z,30.33
2023-02-16T19:41:37.126Z,33.65
2023-02-16T19:44:06.073Z,30.30
2023-02-16T19:46:35.344Z,26.98
2023-02-16T19:49:04.625Z,26.95
2023-02-16T19:51:33.648Z,25.98
2023-02-16T19:54:04.725Z,23.48
2023-02-16T19:56:33.936Z,25.80
2023-02-16T19:59:02.769Z,27.08
2023-02-16T20:01:31.963Z,31.73
2023-02-16T20:04:01.769Z,29.20
2023-02-16T20:06:31.865Z,39.53
2023-02-16T20:09:01.901Z,36.05
2023-02-16T20:11:31.304Z,29.33
2023-02-16T20:14:00.755Z,31.05
2023-02-16T20:16:30.467Z,28.48
2023-02-16T20:19:00.231Z,26.80
2023-02-16T20:21:30.829Z,26.15
2023-02-16T20:24:03.278Z,27.42
2023-02-16T20:26:38.288Z,30.45
2023-02-16T20:29:08.886Z,22.05
2023-02-16T20:31:58.728Z,23.10
2023-02-16T20:34:28.759Z,17.05
2023-02-16T20:36:57.585Z,20.35
2023-02-16T20:39:26.267Z,16.83
2023-02-16T20:41:59.146Z,16.85
2023-02-16T20:44:28.189Z,18.92
2023-02-16T20:46:57.272Z,20.17
2023-02-16T20:49:25.977Z,21.98
2023-02-16T20:51:56.923Z,18.48
2023-02-16T20:54:25.584Z,22.13
2023-02-16T20:56:54.279Z,20.52
2023-02-16T20:59:23.227Z,18.20
2023-02-16T21:01:52.954Z,18.83
2023-02-16T21:04:22.041Z,21.77
2023-02-16T21:06:50.935Z,19.60
2023-02-16T21:09:19.653Z,18.92
2023-02-16T21:11:48.480Z,18.10
2023-02-16T21:14:17.068Z,18.60
2023-02-16T21:16:45.866Z,18.63
2023-02-16T21:19:22.921Z,17.02
2023-02-16T21:21:53.385Z,17.73
2023-02-16T21:24:22.377Z,19.95
2023-02-16T21:26:51.188Z,21.95
2023-02-16T21:29:20.023Z,24.20
2023-02-16T21:31:48.700Z,23.10
2023-02-16T21:34:17.501Z,20.75
2023-02-16T21:36:46.285Z,22.42
2023-02-16T21:39:15.083Z,20.98
2023-02-16T21:41:43.904Z,15.98
2023-02-16T21:44:18.725Z,16.38
2023-02-16T21:46:48.863Z,15.75
2023-02-16T21:49:20.130Z,17.10
2023-02-16T21:51:49.885Z,21.48
2023-02-16T21:54:43.089Z,19.50
2023-02-16T21:57:11.826Z,20.52
2023-02-16T21:59:40.386Z,21.73
2023-02-16T22:02:11.543Z,20.65
2023-02-16T22:04:40.243Z,20.63
2023-02-16T22:07:09.164Z,23.10
2023-02-16T22:09:37.948Z,21.63
2023-02-16T22:12:12.525Z,20.80
2023-02-16T22:14:41.306Z,21.20
2023-02-16T22:17:09.901Z,22.02
2023-02-16T22:19:38.693Z,20.02
2023-02-16T22:22:07.401Z,23.02
2023-02-16T22:24:36.112Z,23.83
2023-02-16T22:27:04.959Z,21.40
2023-02-16T22:29:33.523Z,18.10
2023-02-16T22:32:02.374Z,16.98
2023-02-16T22:34:31.168Z,19.30
2023-02-16T22:37:02.619Z,17.77
2023-02-16T22:39:32.108Z,18.05
2023-02-16T22:42:00.968Z,17.67
2023-02-16T22:44:29.447Z,19.58
2023-02-16T22:46:58.509Z,13.30
2023-02-16T22:49:27.326Z,18.70
2023-02-16T22:51:56.068Z,26.52
2023-02-16T22:54:25.409Z,23.58
2023-02-16T22:56:54.111Z,18.33
2023-02-16T22:59:22.912Z,19.08
2023-02-16T23:01:52.214Z,14.48
2023-02-16T23:04:20.999Z,14.82
2023-02-16T23:06:49.801Z,24.17
2023-02-16T23:09:21.603Z,22.25
2023-02-16T23:11:51.207Z,23.98
2023-02-16T23:14:20.307Z,23.45
2023-02-16T23:16:52.289Z,22.00
2023-02-16T23:19:24.101Z,22.45
2023-02-16T23:21:53.249Z,17.10
2023-02-16T23:24:23.902Z,19.42
2023-02-16T23:26:53.786Z,19.15
2023-02-16T23:29:22.773Z,20.95
2023-02-16T23:31:52.610Z,30.75
2023-02-16T23:34:21.688Z,21.02
2023-02-16T23:36:50.470Z,25.55
2023-02-16T23:39:19.499Z,23.30
2023-02-16T23:41:48.270Z,19.33
2023-02-16T23:44:16.782Z,17.45
2023-02-16T23:46:45.840Z,17.17
2023-02-16T23:49:14.452Z,19.15
2023-02-16T23:51:43.189Z,24.40
2023-02-16T23:54:12.146Z,22.30
2023-02-16T23:56:41.969Z,43.55
2023-02-16T23:59:10.695Z,40.00
